Terminal Aerodrome Forecast
Issued by NWS Shreveport, LA

Home | Current Version | Previous Version | Text Only | Print | Product List | Glossary On
Versions: 1 2 3 4 5 6 7 8 9 10 11 12 13 14 15 16 17 18 19 20 21 22 23 24
000
FTUS44 KSHV 220734 AAA
TAFMLU
TAF AMD
KMLU 220734Z 2208/2306 04004KT P6SM BKN250
      TEMPO 2210/2214 2SM BR
     FM221400 05006KT P6SM SCT100 BKN250
     FM221800 05006KT P6SM SCT040 SCT250
     FM230000 05004KT P6SM SCT040=

USA.gov is the U.S. government's official web portal to all federal, state and local government web resources and services.